KMSS/MSS METAR and TAF weather

Enter ICAO airport designator
Station Type Date Time Source
KMSS METAR 2020/01/20 21:53 UTC NOAA

KMSS 202153Z AUTO 22011KT 10SM CLR M11/M17 A3036 RMK AO2 SLP292 T11061172 $


Station Type Date Time Source
KMSS Decoded METAR 2020/01/20 21:53 UTC NOAA

MASSENA INTERNATIONAL -RICHARDS FLD, NY, United States (KMSS) 44-56N 074-51W 66M
Jan 20, 2020 - 04:53 PM EST / 2020.01.20 2153 UTC
Wind: from the SW (220 degrees) at 13 MPH (11 KT):0
Visibility: 10 mile(s):0
Sky conditions: clear
Temperature: 12.9 F (-10.6 C)
Windchill: -2 F (-19 C):1
Dew Point: 1.0 F (-17.2 C)
Relative Humidity: 58%
Pressure (altimeter): 30.36 in. Hg (1028 hPa)
ob: KMSS 202153Z AUTO 22011KT 10SM CLR M11/M17 A3036 RMK AO2 SLP292 T11061172
cycle: 22

Station Type Date Time Source
KMSS TAF 2020/01/20 17:22 UTC NOAA

TAF
AMD KMSS 201720Z 2017/2118 23009KT P6SM SKC
FM210400 26006KT P6SM SKC
FM211400 22007KT P6SM BKN180

Example: see airport list